sensor_id;sensor_type;location;lat;lon;timestamp;P1;durP1;ratioP1;P2;durP2;ratioP2
15307;SDS011;7755;52.208;6.964;2023-02-15T00:00:06;31.33;;;27.30;;
15307;SDS011;7755;52.208;6.964;2023-02-15T00:04:12;29.00;;;25.63;;
15307;SDS011;7755;52.208;6.964;2023-02-15T00:08:16;28.77;;;25.07;;
15307;SDS011;7755;52.208;6.964;2023-02-15T00:12:18;39.23;;;29.90;;
15307;SDS011;7755;52.208;6.964;2023-02-15T00:16:23;26.63;;;23.00;;
15307;SDS011;7755;52.208;6.964;2023-02-15T00:20:26;26.73;;;23.87;;
15307;SDS011;7755;52.208;6.964;2023-02-15T00:24:28;25.70;;;22.80;;
15307;SDS011;7755;52.208;6.964;2023-02-15T00:28:31;28.20;;;24.23;;
15307;SDS011;7755;52.208;6.964;2023-02-15T00:32:35;27.33;;;22.60;;
15307;SDS011;7755;52.208;6.964;2023-02-15T00:36:38;26.27;;;22.77;;
15307;SDS011;7755;52.208;6.964;2023-02-15T00:40:41;26.00;;;23.27;;
15307;SDS011;7755;52.208;6.964;2023-02-15T00:44:44;29.10;;;24.33;;
15307;SDS011;7755;52.208;6.964;2023-02-15T00:48:48;39.43;;;30.90;;
15307;SDS011;7755;52.208;6.964;2023-02-15T00:52:51;34.47;;;26.83;;
15307;SDS011;7755;52.208;6.964;2023-02-15T00:56:54;28.43;;;25.33;;
15307;SDS011;7755;52.208;6.964;2023-02-15T01:01:01;32.67;;;26.93;;
15307;SDS011;7755;52.208;6.964;2023-02-15T01:05:08;30.50;;;27.10;;
15307;SDS011;7755;52.208;6.964;2023-02-15T01:09:11;29.57;;;23.73;;
15307;SDS011;7755;52.208;6.964;2023-02-15T01:13:15;31.07;;;25.37;;
15307;SDS011;7755;52.208;6.964;2023-02-15T01:17:18;32.07;;;25.17;;
15307;SDS011;7755;52.208;6.964;2023-02-15T01:21:26;31.50;;;25.37;;
15307;SDS011;7755;52.208;6.964;2023-02-15T01:25:29;32.20;;;26.33;;
15307;SDS011;7755;52.208;6.964;2023-02-15T01:29:32;29.23;;;24.93;;
15307;SDS011;7755;52.208;6.964;2023-02-15T01:33:35;31.83;;;25.50;;
15307;SDS011;7755;52.208;6.964;2023-02-15T01:37:39;28.87;;;25.70;;
15307;SDS011;7755;52.208;6.964;2023-02-15T01:41:42;29.83;;;24.07;;
15307;SDS011;7755;52.208;6.964;2023-02-15T01:45:45;29.90;;;25.07;;
15307;SDS011;7755;52.208;6.964;2023-02-15T01:49:51;28.10;;;22.83;;
15307;SDS011;7755;52.208;6.964;2023-02-15T01:54:03;26.17;;;21.47;;
15307;SDS011;7755;52.208;6.964;2023-02-15T01:58:12;25.77;;;21.93;;
15307;SDS011;7755;52.208;6.964;2023-02-15T02:02:15;26.90;;;22.17;;
15307;SDS011;7755;52.208;6.964;2023-02-15T02:06:22;26.57;;;22.33;;
15307;SDS011;7755;52.208;6.964;2023-02-15T02:10:28;25.70;;;21.63;;
15307;SDS011;7755;52.208;6.964;2023-02-15T02:14:31;29.77;;;23.67;;
15307;SDS011;7755;52.208;6.964;2023-02-15T02:18:39;31.93;;;25.13;;
15307;SDS011;7755;52.208;6.964;2023-02-15T02:22:58;34.47;;;25.87;;
15307;SDS011;7755;52.208;6.964;2023-02-15T02:27:34;27.07;;;22.03;;
15307;SDS011;7755;52.208;6.964;2023-02-15T02:31:47;32.47;;;25.73;;
15307;SDS011;7755;52.208;6.964;2023-02-15T02:36:17;27.37;;;22.07;;
15307;SDS011;7755;52.208;6.964;2023-02-15T02:40:30;29.30;;;25.83;;
15307;SDS011;7755;52.208;6.964;2023-02-15T02:44:41;28.00;;;21.47;;
15307;SDS011;7755;52.208;6.964;2023-02-15T02:48:46;24.87;;;22.13;;
15307;SDS011;7755;52.208;6.964;2023-02-15T02:52:52;23.47;;;20.67;;
15307;SDS011;7755;52.208;6.964;2023-02-15T02:56:58;24.10;;;21.07;;
15307;SDS011;7755;52.208;6.964;2023-02-15T03:01:06;26.03;;;21.37;;
15307;SDS011;7755;52.208;6.964;2023-02-15T03:05:13;24.70;;;21.17;;
15307;SDS011;7755;52.208;6.964;2023-02-15T03:09:24;25.93;;;23.00;;
15307;SDS011;7755;52.208;6.964;2023-02-15T03:13:44;28.70;;;23.03;;
15307;SDS011;7755;52.208;6.964;2023-02-15T03:17:51;25.37;;;21.17;;
15307;SDS011;7755;52.208;6.964;2023-02-15T03:21:59;28.60;;;24.87;;
15307;SDS011;7755;52.208;6.964;2023-02-15T03:26:12;29.87;;;25.40;;
15307;SDS011;7755;52.208;6.964;2023-02-15T03:30:15;29.23;;;24.33;;
15307;SDS011;7755;52.208;6.964;2023-02-15T03:34:21;29.57;;;23.90;;
15307;SDS011;7755;52.208;6.964;2023-02-15T03:38:26;29.97;;;23.93;;
15307;SDS011;7755;52.208;6.964;2023-02-15T03:42:33;36.17;;;27.80;;
15307;SDS011;7755;52.208;6.964;2023-02-15T03:46:42;31.93;;;25.40;;
15307;SDS011;7755;52.208;6.964;2023-02-15T03:50:49;28.57;;;23.83;;
15307;SDS011;7755;52.208;6.964;2023-02-15T03:55:10;31.97;;;24.30;;
15307;SDS011;7755;52.208;6.964;2023-02-15T03:59:15;30.47;;;23.23;;
15307;SDS011;7755;52.208;6.964;2023-02-15T04:03:36;31.07;;;23.93;;
15307;SDS011;7755;52.208;6.964;2023-02-15T04:07:42;32.17;;;25.97;;
15307;SDS011;7755;52.208;6.964;2023-02-15T04:11:45;31.23;;;23.90;;
15307;SDS011;7755;52.208;6.964;2023-02-15T04:15:48;29.23;;;24.47;;
15307;SDS011;7755;52.208;6.964;2023-02-15T04:20:10;33.43;;;25.03;;
15307;SDS011;7755;52.208;6.964;2023-02-15T04:24:31;29.93;;;24.43;;
15307;SDS011;7755;52.208;6.964;2023-02-15T04:28:51;29.17;;;22.70;;
15307;SDS011;7755;52.208;6.964;2023-02-15T04:32:55;27.33;;;22.07;;
15307;SDS011;7755;52.208;6.964;2023-02-15T04:36:58;27.63;;;21.87;;
15307;SDS011;7755;52.208;6.964;2023-02-15T04:41:01;26.77;;;21.67;;
15307;SDS011;7755;52.208;6.964;2023-02-15T04:45:04;28.57;;;21.80;;
15307;SDS011;7755;52.208;6.964;2023-02-15T04:49:09;28.77;;;23.07;;
15307;SDS011;7755;52.208;6.964;2023-02-15T04:53:12;26.97;;;22.43;;
15307;SDS011;7755;52.208;6.964;2023-02-15T04:57:15;24.33;;;20.73;;
15307;SDS011;7755;52.208;6.964;2023-02-15T05:01:18;29.10;;;23.00;;
15307;SDS011;7755;52.208;6.964;2023-02-15T05:05:22;25.47;;;20.53;;
15307;SDS011;7755;52.208;6.964;2023-02-15T05:09:25;30.63;;;22.40;;
15307;SDS011;7755;52.208;6.964;2023-02-15T05:13:28;24.33;;;20.43;;
15307;SDS011;7755;52.208;6.964;2023-02-15T05:17:31;24.33;;;21.43;;
15307;SDS011;7755;52.208;6.964;2023-02-15T05:21:35;26.23;;;21.27;;
15307;SDS011;7755;52.208;6.964;2023-02-15T05:25:38;28.40;;;22.13;;
15307;SDS011;7755;52.208;6.964;2023-02-15T05:29:58;27.53;;;22.27;;
15307;SDS011;7755;52.208;6.964;2023-02-15T05:34:01;24.70;;;20.67;;
15307;SDS011;7755;52.208;6.964;2023-02-15T05:38:05;27.20;;;20.73;;
15307;SDS011;7755;52.208;6.964;2023-02-15T05:42:08;25.57;;;21.90;;
15307;SDS011;7755;52.208;6.964;2023-02-15T05:46:11;27.73;;;21.30;;
15307;SDS011;7755;52.208;6.964;2023-02-15T05:50:15;30.13;;;24.67;;
15307;SDS011;7755;52.208;6.964;2023-02-15T05:54:21;26.60;;;21.47;;
15307;SDS011;7755;52.208;6.964;2023-02-15T05:58:24;31.97;;;25.20;;
15307;SDS011;7755;52.208;6.964;2023-02-15T06:02:27;27.73;;;22.10;;
15307;SDS011;7755;52.208;6.964;2023-02-15T06:06:30;26.07;;;20.57;;
15307;SDS011;7755;52.208;6.964;2023-02-15T06:10:34;26.57;;;20.53;;
15307;SDS011;7755;52.208;6.964;2023-02-15T06:14:37;26.63;;;22.93;;
15307;SDS011;7755;52.208;6.964;2023-02-15T06:18:40;27.93;;;22.10;;
15307;SDS011;7755;52.208;6.964;2023-02-15T06:22:44;25.47;;;21.30;;
15307;SDS011;7755;52.208;6.964;2023-02-15T06:26:48;32.27;;;25.53;;
15307;SDS011;7755;52.208;6.964;2023-02-15T06:30:51;29.37;;;23.53;;
15307;SDS011;7755;52.208;6.964;2023-02-15T06:34:54;25.77;;;20.13;;
15307;SDS011;7755;52.208;6.964;2023-02-15T06:38:57;28.17;;;22.73;;
15307;SDS011;7755;52.208;6.964;2023-02-15T06:43:01;25.37;;;21.03;;
15307;SDS011;7755;52.208;6.964;2023-02-15T06:47:04;23.90;;;20.27;;
15307;SDS011;7755;52.208;6.964;2023-02-15T06:51:07;22.60;;;20.20;;
15307;SDS011;7755;52.208;6.964;2023-02-15T06:55:10;27.67;;;21.67;;
15307;SDS011;7755;52.208;6.964;2023-02-15T06:59:14;25.40;;;21.60;;
15307;SDS011;7755;52.208;6.964;2023-02-15T07:03:17;25.93;;;20.73;;
15307;SDS011;7755;52.208;6.964;2023-02-15T07:07:20;24.00;;;21.07;;
15307;SDS011;7755;52.208;6.964;2023-02-15T07:11:23;27.13;;;21.70;;
15307;SDS011;7755;52.208;6.964;2023-02-15T07:15:44;29.80;;;24.17;;
15307;SDS011;7755;52.208;6.964;2023-02-15T07:19:48;27.23;;;21.23;;
15307;SDS011;7755;52.208;6.964;2023-02-15T07:23:51;27.77;;;21.33;;
15307;SDS011;7755;52.208;6.964;2023-02-15T07:27:55;22.97;;;20.47;;
15307;SDS011;7755;52.208;6.964;2023-02-15T07:32:00;26.90;;;21.63;;
15307;SDS011;7755;52.208;6.964;2023-02-15T07:36:03;30.77;;;23.73;;
15307;SDS011;7755;52.208;6.964;2023-02-15T07:40:07;28.63;;;23.23;;
15307;SDS011;7755;52.208;6.964;2023-02-15T07:44:11;30.60;;;23.47;;
15307;SDS011;7755;52.208;6.964;2023-02-15T07:48:15;24.77;;;20.13;;
15307;SDS011;7755;52.208;6.964;2023-02-15T07:52:18;29.37;;;24.83;;
15307;SDS011;7755;52.208;6.964;2023-02-15T07:56:21;26.50;;;23.00;;
15307;SDS011;7755;52.208;6.964;2023-02-15T08:00:24;29.67;;;23.70;;
15307;SDS011;7755;52.208;6.964;2023-02-15T08:04:29;36.30;;;28.47;;
15307;SDS011;7755;52.208;6.964;2023-02-15T08:08:33;36.60;;;28.00;;
15307;SDS011;7755;52.208;6.964;2023-02-15T08:12:36;27.73;;;24.73;;
15307;SDS011;7755;52.208;6.964;2023-02-15T08:16:40;31.40;;;26.57;;
15307;SDS011;7755;52.208;6.964;2023-02-15T08:20:49;34.53;;;25.73;;
15307;SDS011;7755;52.208;6.964;2023-02-15T08:24:52;42.57;;;31.40;;
15307;SDS011;7755;52.208;6.964;2023-02-15T08:28:55;35.90;;;28.60;;
15307;SDS011;7755;52.208;6.964;2023-02-15T08:32:59;46.67;;;35.93;;
15307;SDS011;7755;52.208;6.964;2023-02-15T08:37:03;43.20;;;31.70;;
15307;SDS011;7755;52.208;6.964;2023-02-15T08:41:11;45.73;;;35.97;;
15307;SDS011;7755;52.208;6.964;2023-02-15T08:45:15;54.87;;;38.13;;
15307;SDS011;7755;52.208;6.964;2023-02-15T08:49:19;52.80;;;36.77;;
15307;SDS011;7755;52.208;6.964;2023-02-15T08:53:24;56.33;;;40.77;;
15307;SDS011;7755;52.208;6.964;2023-02-15T08:57:27;42.37;;;33.40;;
15307;SDS011;7755;52.208;6.964;2023-02-15T09:01:31;52.83;;;38.67;;
15307;SDS011;7755;52.208;6.964;2023-02-15T09:05:35;47.47;;;37.13;;
15307;SDS011;7755;52.208;6.964;2023-02-15T09:09:39;52.87;;;38.07;;
15307;SDS011;7755;52.208;6.964;2023-02-15T09:13:42;52.43;;;38.47;;
15307;SDS011;7755;52.208;6.964;2023-02-15T09:17:46;52.30;;;40.03;;
15307;SDS011;7755;52.208;6.964;2023-02-15T09:21:49;49.87;;;37.97;;
15307;SDS011;7755;52.208;6.964;2023-02-15T09:25:54;50.63;;;37.30;;
15307;SDS011;7755;52.208;6.964;2023-02-15T09:29:56;51.67;;;38.67;;
15307;SDS011;7755;52.208;6.964;2023-02-15T09:33:59;49.17;;;37.03;;
15307;SDS011;7755;52.208;6.964;2023-02-15T09:38:03;48.73;;;37.53;;
15307;SDS011;7755;52.208;6.964;2023-02-15T09:42:18;46.70;;;35.13;;
15307;SDS011;7755;52.208;6.964;2023-02-15T09:46:45;48.17;;;37.40;;
15307;SDS011;7755;52.208;6.964;2023-02-15T09:51:12;47.13;;;36.30;;
15307;SDS011;7755;52.208;6.964;2023-02-15T09:55:38;47.80;;;36.07;;
15307;SDS011;7755;52.208;6.964;2023-02-15T09:59:50;48.23;;;38.13;;
15307;SDS011;7755;52.208;6.964;2023-02-15T10:04:30;47.10;;;34.20;;
15307;SDS011;7755;52.208;6.964;2023-02-15T10:08:52;55.27;;;36.83;;
15307;SDS011;7755;52.208;6.964;2023-02-15T10:13:07;50.30;;;35.47;;
15307;SDS011;7755;52.208;6.964;2023-02-15T10:17:25;52.23;;;35.77;;
15307;SDS011;7755;52.208;6.964;2023-02-15T10:21:45;46.77;;;36.20;;
15307;SDS011;7755;52.208;6.964;2023-02-15T10:25:59;43.53;;;34.00;;
15307;SDS011;7755;52.208;6.964;2023-02-15T10:30:08;42.80;;;33.20;;
15307;SDS011;7755;52.208;6.964;2023-02-15T10:34:17;44.77;;;32.70;;
15307;SDS011;7755;52.208;6.964;2023-02-15T10:38:22;39.93;;;32.07;;
15307;SDS011;7755;52.208;6.964;2023-02-15T10:42:34;41.87;;;31.40;;
15307;SDS011;7755;52.208;6.964;2023-02-15T10:46:55;41.80;;;32.37;;
15307;SDS011;7755;52.208;6.964;2023-02-15T10:51:14;41.53;;;31.73;;
15307;SDS011;7755;52.208;6.964;2023-02-15T10:55:30;43.63;;;31.73;;
15307;SDS011;7755;52.208;6.964;2023-02-15T10:59:50;37.33;;;29.97;;
15307;SDS011;7755;52.208;6.964;2023-02-15T11:08:50;34.70;;;28.23;;
15307;SDS011;7755;52.208;6.964;2023-02-15T11:12:56;39.80;;;30.43;;
15307;SDS011;7755;52.208;6.964;2023-02-15T11:17:05;39.33;;;29.70;;
15307;SDS011;7755;52.208;6.964;2023-02-15T11:21:13;40.63;;;31.13;;
15307;SDS011;7755;52.208;6.964;2023-02-15T11:25:25;42.00;;;30.30;;
15307;SDS011;7755;52.208;6.964;2023-02-15T11:29:32;37.67;;;30.10;;
15307;SDS011;7755;52.208;6.964;2023-02-15T11:33:39;37.90;;;30.03;;
15307;SDS011;7755;52.208;6.964;2023-02-15T11:37:49;34.87;;;28.67;;
15307;SDS011;7755;52.208;6.964;2023-02-15T11:41:59;35.37;;;26.53;;
15307;SDS011;7755;52.208;6.964;2023-02-15T11:46:07;37.77;;;29.63;;
15307;SDS011;7755;52.208;6.964;2023-02-15T11:50:13;34.57;;;29.67;;
15307;SDS011;7755;52.208;6.964;2023-02-15T11:54:19;34.63;;;27.70;;
15307;SDS011;7755;52.208;6.964;2023-02-15T11:58:30;36.17;;;27.80;;
15307;SDS011;7755;52.208;6.964;2023-02-15T12:02:38;33.17;;;28.47;;
15307;SDS011;7755;52.208;6.964;2023-02-15T12:06:44;34.13;;;28.20;;
15307;SDS011;7755;52.208;6.964;2023-02-15T12:10:53;30.37;;;26.37;;
15307;SDS011;7755;52.208;6.964;2023-02-15T12:15:03;33.97;;;26.03;;
15307;SDS011;7755;52.208;6.964;2023-02-15T12:19:12;33.67;;;27.77;;
15307;SDS011;7755;52.208;6.964;2023-02-15T12:23:29;34.83;;;27.67;;
15307;SDS011;7755;52.208;6.964;2023-02-15T12:27:34;34.00;;;26.47;;
15307;SDS011;7755;52.208;6.964;2023-02-15T12:31:40;36.10;;;27.00;;
15307;SDS011;7755;52.208;6.964;2023-02-15T12:35:46;33.23;;;25.80;;
15307;SDS011;7755;52.208;6.964;2023-02-15T12:39:52;35.53;;;26.57;;
15307;SDS011;7755;52.208;6.964;2023-02-15T12:44:04;38.50;;;29.47;;
15307;SDS011;7755;52.208;6.964;2023-02-15T12:48:17;34.03;;;26.60;;
15307;SDS011;7755;52.208;6.964;2023-02-15T12:52:23;35.77;;;28.10;;
15307;SDS011;7755;52.208;6.964;2023-02-15T12:56:27;32.17;;;25.90;;
15307;SDS011;7755;52.208;6.964;2023-02-15T13:00:30;31.20;;;24.93;;
15307;SDS011;7755;52.208;6.964;2023-02-15T13:04:34;33.03;;;24.53;;
15307;SDS011;7755;52.208;6.964;2023-02-15T13:08:39;35.53;;;25.23;;
15307;SDS011;7755;52.208;6.964;2023-02-15T13:12:50;30.30;;;24.23;;
15307;SDS011;7755;52.208;6.964;2023-02-15T13:16:56;34.00;;;24.13;;
15307;SDS011;7755;52.208;6.964;2023-02-15T13:21:06;29.70;;;23.80;;
15307;SDS011;7755;52.208;6.964;2023-02-15T13:25:14;34.80;;;24.37;;
15307;SDS011;7755;52.208;6.964;2023-02-15T13:29:22;28.73;;;23.30;;
15307;SDS011;7755;52.208;6.964;2023-02-15T13:33:30;29.60;;;22.80;;
15307;SDS011;7755;52.208;6.964;2023-02-15T13:37:49;29.30;;;23.10;;
15307;SDS011;7755;52.208;6.964;2023-02-15T13:42:00;32.20;;;23.97;;
15307;SDS011;7755;52.208;6.964;2023-02-15T13:46:16;31.67;;;22.87;;
15307;SDS011;7755;52.208;6.964;2023-02-15T13:50:30;29.53;;;23.33;;
15307;SDS011;7755;52.208;6.964;2023-02-15T13:54:58;31.60;;;23.70;;
15307;SDS011;7755;52.208;6.964;2023-02-15T13:59:32;29.50;;;20.63;;
15307;SDS011;7755;52.208;6.964;2023-02-15T14:03:57;28.40;;;22.90;;
15307;SDS011;7755;52.208;6.964;2023-02-15T14:08:21;24.37;;;19.80;;
15307;SDS011;7755;52.208;6.964;2023-02-15T14:12:49;28.57;;;21.63;;
15307;SDS011;7755;52.208;6.964;2023-02-15T14:17:01;26.30;;;22.37;;
15307;SDS011;7755;52.208;6.964;2023-02-15T14:21:13;28.10;;;22.33;;
15307;SDS011;7755;52.208;6.964;2023-02-15T14:25:21;25.93;;;21.87;;
15307;SDS011;7755;52.208;6.964;2023-02-15T14:29:36;31.43;;;22.00;;
15307;SDS011;7755;52.208;6.964;2023-02-15T14:33:50;25.90;;;20.33;;
15307;SDS011;7755;52.208;6.964;2023-02-15T14:37:58;24.10;;;19.37;;
15307;SDS011;7755;52.208;6.964;2023-02-15T14:42:09;27.23;;;22.10;;
15307;SDS011;7755;52.208;6.964;2023-02-15T14:46:21;23.53;;;20.57;;
15307;SDS011;7755;52.208;6.964;2023-02-15T14:50:37;23.77;;;19.77;;
15307;SDS011;7755;52.208;6.964;2023-02-15T14:54:59;27.13;;;22.33;;
15307;SDS011;7755;52.208;6.964;2023-02-15T14:59:15;29.20;;;21.50;;
15307;SDS011;7755;52.208;6.964;2023-02-15T15:03:22;29.70;;;21.77;;
15307;SDS011;7755;52.208;6.964;2023-02-15T15:07:28;26.63;;;20.73;;
15307;SDS011;7755;52.208;6.964;2023-02-15T15:11:45;28.40;;;20.53;;
15307;SDS011;7755;52.208;6.964;2023-02-15T15:15:49;25.33;;;20.33;;
15307;SDS011;7755;52.208;6.964;2023-02-15T15:20:00;24.87;;;18.93;;
15307;SDS011;7755;52.208;6.964;2023-02-15T15:24:05;26.37;;;19.70;;
15307;SDS011;7755;52.208;6.964;2023-02-15T15:28:09;25.70;;;20.20;;
15307;SDS011;7755;52.208;6.964;2023-02-15T15:32:32;23.73;;;19.17;;
15307;SDS011;7755;52.208;6.964;2023-02-15T15:41:16;25.63;;;20.83;;
15307;SDS011;7755;52.208;6.964;2023-02-15T15:49:54;26.53;;;20.23;;
15307;SDS011;7755;52.208;6.964;2023-02-15T15:54:00;25.63;;;20.40;;
15307;SDS011;7755;52.208;6.964;2023-02-15T15:58:06;23.80;;;20.47;;
15307;SDS011;7755;52.208;6.964;2023-02-15T16:02:11;27.97;;;21.40;;
15307;SDS011;7755;52.208;6.964;2023-02-15T16:06:27;26.90;;;21.77;;
15307;SDS011;7755;52.208;6.964;2023-02-15T16:10:36;24.93;;;21.17;;
15307;SDS011;7755;52.208;6.964;2023-02-15T16:14:39;30.40;;;24.30;;
15307;SDS011;7755;52.208;6.964;2023-02-15T16:18:44;29.47;;;23.67;;
15307;SDS011;7755;52.208;6.964;2023-02-15T16:22:51;34.23;;;26.10;;
15307;SDS011;7755;52.208;6.964;2023-02-15T16:27:10;32.80;;;26.43;;
15307;SDS011;7755;52.208;6.964;2023-02-15T16:31:37;31.97;;;24.50;;
15307;SDS011;7755;52.208;6.964;2023-02-15T16:35:40;29.00;;;23.20;;
15307;SDS011;7755;52.208;6.964;2023-02-15T16:39:55;31.27;;;23.40;;
15307;SDS011;7755;52.208;6.964;2023-02-15T16:43:59;29.80;;;23.47;;
15307;SDS011;7755;52.208;6.964;2023-02-15T16:48:08;31.83;;;24.53;;
15307;SDS011;7755;52.208;6.964;2023-02-15T16:52:19;27.27;;;21.77;;
15307;SDS011;7755;52.208;6.964;2023-02-15T16:56:24;30.23;;;23.83;;
15307;SDS011;7755;52.208;6.964;2023-02-15T17:00:31;31.00;;;23.57;;
15307;SDS011;7755;52.208;6.964;2023-02-15T17:04:37;28.57;;;23.60;;
15307;SDS011;7755;52.208;6.964;2023-02-15T17:08:41;31.67;;;24.47;;
15307;SDS011;7755;52.208;6.964;2023-02-15T17:12:45;31.10;;;23.70;;
15307;SDS011;7755;52.208;6.964;2023-02-15T17:16:53;31.20;;;24.60;;
15307;SDS011;7755;52.208;6.964;2023-02-15T17:21:01;35.42;;;31.63;;
15307;SDS011;7755;52.208;6.964;2023-02-15T17:25:18;47.87;;;37.43;;
15307;SDS011;7755;52.208;6.964;2023-02-15T17:29:30;54.03;;;44.67;;
15307;SDS011;7755;52.208;6.964;2023-02-15T17:33:38;42.87;;;33.90;;
15307;SDS011;7755;52.208;6.964;2023-02-15T17:37:42;43.73;;;37.13;;
15307;SDS011;7755;52.208;6.964;2023-02-15T17:41:47;46.10;;;35.20;;
15307;SDS011;7755;52.208;6.964;2023-02-15T17:45:54;47.00;;;36.73;;
15307;SDS011;7755;52.208;6.964;2023-02-15T17:50:00;36.80;;;31.07;;
15307;SDS011;7755;52.208;6.964;2023-02-15T17:54:05;38.80;;;29.03;;
15307;SDS011;7755;52.208;6.964;2023-02-15T17:58:25;43.30;;;33.30;;
15307;SDS011;7755;52.208;6.964;2023-02-15T18:02:29;37.80;;;29.13;;
15307;SDS011;7755;52.208;6.964;2023-02-15T18:06:55;34.50;;;27.83;;
15307;SDS011;7755;52.208;6.964;2023-02-15T18:11:16;36.40;;;26.60;;
15307;SDS011;7755;52.208;6.964;2023-02-15T18:15:36;31.17;;;25.63;;
15307;SDS011;7755;52.208;6.964;2023-02-15T18:19:39;30.90;;;25.33;;
15307;SDS011;7755;52.208;6.964;2023-02-15T18:23:44;34.23;;;26.83;;
15307;SDS011;7755;52.208;6.964;2023-02-15T18:27:47;32.70;;;26.97;;
15307;SDS011;7755;52.208;6.964;2023-02-15T18:31:51;32.30;;;25.90;;
15307;SDS011;7755;52.208;6.964;2023-02-15T18:35:56;36.27;;;28.93;;
15307;SDS011;7755;52.208;6.964;2023-02-15T18:40:01;43.30;;;33.13;;
15307;SDS011;7755;52.208;6.964;2023-02-15T18:44:07;32.87;;;28.67;;
15307;SDS011;7755;52.208;6.964;2023-02-15T18:48:12;39.17;;;29.03;;
15307;SDS011;7755;52.208;6.964;2023-02-15T18:52:16;36.63;;;28.70;;
15307;SDS011;7755;52.208;6.964;2023-02-15T18:56:21;37.93;;;31.00;;
15307;SDS011;7755;52.208;6.964;2023-02-15T19:00:25;41.07;;;29.70;;
15307;SDS011;7755;52.208;6.964;2023-02-15T19:04:30;35.03;;;26.77;;
15307;SDS011;7755;52.208;6.964;2023-02-15T19:08:33;41.13;;;31.27;;
15307;SDS011;7755;52.208;6.964;2023-02-15T19:12:39;35.03;;;28.17;;
15307;SDS011;7755;52.208;6.964;2023-02-15T19:16:42;35.97;;;29.07;;
15307;SDS011;7755;52.208;6.964;2023-02-15T19:20:45;36.90;;;28.33;;
15307;SDS011;7755;52.208;6.964;2023-02-15T19:24:49;38.70;;;32.37;;
15307;SDS011;7755;52.208;6.964;2023-02-15T19:28:54;41.67;;;34.63;;
15307;SDS011;7755;52.208;6.964;2023-02-15T19:32:58;45.70;;;34.63;;
15307;SDS011;7755;52.208;6.964;2023-02-15T19:37:02;37.70;;;29.93;;
15307;SDS011;7755;52.208;6.964;2023-02-15T19:41:07;36.23;;;27.17;;
15307;SDS011;7755;52.208;6.964;2023-02-15T19:45:20;38.03;;;28.50;;
15307;SDS011;7755;52.208;6.964;2023-02-15T19:49:25;37.10;;;28.20;;
15307;SDS011;7755;52.208;6.964;2023-02-15T19:53:27;36.30;;;27.83;;
15307;SDS011;7755;52.208;6.964;2023-02-15T19:57:31;36.10;;;25.83;;
15307;SDS011;7755;52.208;6.964;2023-02-15T20:01:35;38.00;;;28.93;;
15307;SDS011;7755;52.208;6.964;2023-02-15T20:05:40;49.50;;;39.70;;
15307;SDS011;7755;52.208;6.964;2023-02-15T20:09:43;51.17;;;40.47;;
15307;SDS011;7755;52.208;6.964;2023-02-15T20:13:47;49.00;;;37.83;;
15307;SDS011;7755;52.208;6.964;2023-02-15T20:17:51;45.53;;;34.23;;
15307;SDS011;7755;52.208;6.964;2023-02-15T20:21:57;41.63;;;32.43;;
15307;SDS011;7755;52.208;6.964;2023-02-15T20:26:00;64.23;;;52.50;;
15307;SDS011;7755;52.208;6.964;2023-02-15T20:30:16;46.23;;;36.33;;
15307;SDS011;7755;52.208;6.964;2023-02-15T20:34:21;41.13;;;33.77;;
15307;SDS011;7755;52.208;6.964;2023-02-15T20:38:25;37.17;;;27.03;;
15307;SDS011;7755;52.208;6.964;2023-02-15T20:42:30;34.93;;;27.93;;
15307;SDS011;7755;52.208;6.964;2023-02-15T20:46:32;32.50;;;26.33;;
15307;SDS011;7755;52.208;6.964;2023-02-15T20:50:37;33.17;;;26.30;;
15307;SDS011;7755;52.208;6.964;2023-02-15T20:54:40;36.97;;;27.43;;
15307;SDS011;7755;52.208;6.964;2023-02-15T20:58:42;33.63;;;25.37;;
15307;SDS011;7755;52.208;6.964;2023-02-15T21:02:45;36.07;;;28.77;;
15307;SDS011;7755;52.208;6.964;2023-02-15T21:06:51;32.63;;;24.83;;
15307;SDS011;7755;52.208;6.964;2023-02-15T21:10:54;37.07;;;27.37;;
15307;SDS011;7755;52.208;6.964;2023-02-15T21:14:57;33.10;;;27.07;;
15307;SDS011;7755;52.208;6.964;2023-02-15T21:19:00;38.50;;;27.23;;
15307;SDS011;7755;52.208;6.964;2023-02-15T21:23:04;36.10;;;26.37;;
15307;SDS011;7755;52.208;6.964;2023-02-15T21:27:08;36.60;;;28.27;;
15307;SDS011;7755;52.208;6.964;2023-02-15T21:31:15;43.47;;;30.67;;
15307;SDS011;7755;52.208;6.964;2023-02-15T21:35:20;39.93;;;30.67;;
15307;SDS011;7755;52.208;6.964;2023-02-15T21:39:25;35.63;;;28.20;;
15307;SDS011;7755;52.208;6.964;2023-02-15T21:43:30;39.83;;;31.30;;
15307;SDS011;7755;52.208;6.964;2023-02-15T21:47:51;39.10;;;29.90;;
15307;SDS011;7755;52.208;6.964;2023-02-15T21:51:53;34.73;;;26.43;;
15307;SDS011;7755;52.208;6.964;2023-02-15T21:56:17;37.00;;;28.70;;
15307;SDS011;7755;52.208;6.964;2023-02-15T22:00:22;43.43;;;31.77;;
15307;SDS011;7755;52.208;6.964;2023-02-15T22:04:29;41.17;;;31.60;;
15307;SDS011;7755;52.208;6.964;2023-02-15T22:08:32;37.30;;;29.20;;
15307;SDS011;7755;52.208;6.964;2023-02-15T22:12:37;38.23;;;30.63;;
15307;SDS011;7755;52.208;6.964;2023-02-15T22:16:41;42.37;;;31.83;;
15307;SDS011;7755;52.208;6.964;2023-02-15T22:20:50;42.53;;;32.73;;
15307;SDS011;7755;52.208;6.964;2023-02-15T22:25:00;49.67;;;38.60;;
15307;SDS011;7755;52.208;6.964;2023-02-15T22:33:19;40.83;;;30.27;;
15307;SDS011;7755;52.208;6.964;2023-02-15T22:37:24;39.37;;;30.20;;
15307;SDS011;7755;52.208;6.964;2023-02-15T22:41:27;39.63;;;31.23;;
15307;SDS011;7755;52.208;6.964;2023-02-15T22:45:33;37.30;;;29.20;;
15307;SDS011;7755;52.208;6.964;2023-02-15T22:49:37;38.63;;;29.33;;
15307;SDS011;7755;52.208;6.964;2023-02-15T22:53:39;40.20;;;29.93;;
15307;SDS011;7755;52.208;6.964;2023-02-15T22:57:43;39.47;;;29.67;;
15307;SDS011;7755;52.208;6.964;2023-02-15T23:01:49;40.60;;;29.57;;
15307;SDS011;7755;52.208;6.964;2023-02-15T23:06:01;39.47;;;30.47;;
15307;SDS011;7755;52.208;6.964;2023-02-15T23:10:05;41.13;;;31.47;;
15307;SDS011;7755;52.208;6.964;2023-02-15T23:14:22;44.00;;;34.47;;
15307;SDS011;7755;52.208;6.964;2023-02-15T23:18:32;40.47;;;29.97;;
15307;SDS011;7755;52.208;6.964;2023-02-15T23:22:36;42.30;;;31.23;;
15307;SDS011;7755;52.208;6.964;2023-02-15T23:26:43;42.53;;;31.87;;
15307;SDS011;7755;52.208;6.964;2023-02-15T23:30:46;42.20;;;32.17;;
15307;SDS011;7755;52.208;6.964;2023-02-15T23:34:51;44.73;;;33.47;;
15307;SDS011;7755;52.208;6.964;2023-02-15T23:38:54;42.70;;;32.73;;
15307;SDS011;7755;52.208;6.964;2023-02-15T23:42:58;41.63;;;32.23;;
15307;SDS011;7755;52.208;6.964;2023-02-15T23:47:02;44.97;;;32.83;;
15307;SDS011;7755;52.208;6.964;2023-02-15T23:51:08;43.10;;;31.83;;
15307;SDS011;7755;52.208;6.964;2023-02-15T23:55:12;51.77;;;34.20;;
15307;SDS011;7755;52.208;6.964;2023-02-15T23:59:16;50.43;;;37.67;;
